sensor_id;sensor_type;location;lat;lon;timestamp;P1;durP1;ratioP1;P2;durP2;ratioP2
29184;SDS011;16233;47.964;-3.842;2022-09-27T00:00:56;13.45;;;2.28;;
29184;SDS011;16233;47.964;-3.842;2022-09-27T00:02:58;8.43;;;2.17;;
29184;SDS011;16233;47.964;-3.842;2022-09-27T00:04:59;10.23;;;2.28;;
29184;SDS011;16233;47.964;-3.842;2022-09-27T00:07:00;11.43;;;2.10;;
29184;SDS011;16233;47.964;-3.842;2022-09-27T00:09:01;15.80;;;3.20;;
29184;SDS011;16233;47.964;-3.842;2022-09-27T00:11:03;13.38;;;2.75;;
29184;SDS011;16233;47.964;-3.842;2022-09-27T00:13:06;13.15;;;3.95;;
29184;SDS011;16233;47.964;-3.842;2022-09-27T00:15:10;14.40;;;2.28;;
29184;SDS011;16233;47.964;-3.842;2022-09-27T00:17:11;12.35;;;2.80;;
29184;SDS011;16233;47.964;-3.842;2022-09-27T00:19:13;13.65;;;2.25;;
29184;SDS011;16233;47.964;-3.842;2022-09-27T00:21:15;12.05;;;2.17;;
29184;SDS011;16233;47.964;-3.842;2022-09-27T00:23:17;12.13;;;2.42;;
29184;SDS011;16233;47.964;-3.842;2022-09-27T00:25:18;8.38;;;2.03;;
29184;SDS011;16233;47.964;-3.842;2022-09-27T00:27:19;11.32;;;2.25;;
29184;SDS011;16233;47.964;-3.842;2022-09-27T00:29:20;12.05;;;2.85;;
29184;SDS011;16233;47.964;-3.842;2022-09-27T00:31:23;4.57;;;1.48;;
29184;SDS011;16233;47.964;-3.842;2022-09-27T00:33:25;12.07;;;2.00;;
29184;SDS011;16233;47.964;-3.842;2022-09-27T00:35:27;11.13;;;2.40;;
29184;SDS011;16233;47.964;-3.842;2022-09-27T00:37:28;8.05;;;2.05;;
29184;SDS011;16233;47.964;-3.842;2022-09-27T00:39:29;11.70;;;3.28;;
29184;SDS011;16233;47.964;-3.842;2022-09-27T00:41:30;8.60;;;2.30;;
29184;SDS011;16233;47.964;-3.842;2022-09-27T00:43:41;7.93;;;2.15;;
29184;SDS011;16233;47.964;-3.842;2022-09-27T00:45:45;14.05;;;3.13;;
29184;SDS011;16233;47.964;-3.842;2022-09-27T00:47:53;9.13;;;2.35;;
29184;SDS011;16233;47.964;-3.842;2022-09-27T00:49:59;10.80;;;2.55;;
29184;SDS011;16233;47.964;-3.842;2022-09-27T00:52:06;6.88;;;2.17;;
29184;SDS011;16233;47.964;-3.842;2022-09-27T00:54:11;9.25;;;1.95;;
29184;SDS011;16233;47.964;-3.842;2022-09-27T00:56:14;10.30;;;1.95;;
29184;SDS011;16233;47.964;-3.842;2022-09-27T00:58:19;10.38;;;2.10;;
29184;SDS011;16233;47.964;-3.842;2022-09-27T01:00:24;11.35;;;2.30;;
29184;SDS011;16233;47.964;-3.842;2022-09-27T01:02:25;8.25;;;2.63;;
29184;SDS011;16233;47.964;-3.842;2022-09-27T01:04:28;11.73;;;2.00;;
29184;SDS011;16233;47.964;-3.842;2022-09-27T01:06:30;11.13;;;2.60;;
29184;SDS011;16233;47.964;-3.842;2022-09-27T01:08:31;11.80;;;2.33;;
29184;SDS011;16233;47.964;-3.842;2022-09-27T01:10:34;11.40;;;1.98;;
29184;SDS011;16233;47.964;-3.842;2022-09-27T01:12:42;6.18;;;2.20;;
29184;SDS011;16233;47.964;-3.842;2022-09-27T01:15:00;9.00;;;1.73;;
29184;SDS011;16233;47.964;-3.842;2022-09-27T01:17:16;9.18;;;1.80;;
29184;SDS011;16233;47.964;-3.842;2022-09-27T01:19:39;11.43;;;2.10;;
29184;SDS011;16233;47.964;-3.842;2022-09-27T01:22:04;9.80;;;1.85;;
29184;SDS011;16233;47.964;-3.842;2022-09-27T01:24:15;5.18;;;1.60;;
29184;SDS011;16233;47.964;-3.842;2022-09-27T01:26:37;9.52;;;2.50;;
29184;SDS011;16233;47.964;-3.842;2022-09-27T01:29:01;9.35;;;2.47;;
29184;SDS011;16233;47.964;-3.842;2022-09-27T01:31:08;8.65;;;2.50;;
29184;SDS011;16233;47.964;-3.842;2022-09-27T01:33:24;10.68;;;2.55;;
29184;SDS011;16233;47.964;-3.842;2022-09-27T01:35:38;7.53;;;2.20;;
29184;SDS011;16233;47.964;-3.842;2022-09-27T01:37:49;5.88;;;2.15;;
29184;SDS011;16233;47.964;-3.842;2022-09-27T01:39:58;9.73;;;2.03;;
29184;SDS011;16233;47.964;-3.842;2022-09-27T01:42:06;11.30;;;2.65;;
29184;SDS011;16233;47.964;-3.842;2022-09-27T01:44:12;11.95;;;2.30;;
29184;SDS011;16233;47.964;-3.842;2022-09-27T01:46:21;11.35;;;2.50;;
29184;SDS011;16233;47.964;-3.842;2022-09-27T01:48:27;9.98;;;1.80;;
29184;SDS011;16233;47.964;-3.842;2022-09-27T01:50:33;11.38;;;1.90;;
29184;SDS011;16233;47.964;-3.842;2022-09-27T01:52:40;6.80;;;1.70;;
29184;SDS011;16233;47.964;-3.842;2022-09-27T01:54:49;10.43;;;2.67;;
29184;SDS011;16233;47.964;-3.842;2022-09-27T01:56:54;6.47;;;2.03;;
29184;SDS011;16233;47.964;-3.842;2022-09-27T01:59:02;12.38;;;2.00;;
29184;SDS011;16233;47.964;-3.842;2022-09-27T02:01:06;9.77;;;2.28;;
29184;SDS011;16233;47.964;-3.842;2022-09-27T02:03:11;11.27;;;2.05;;
29184;SDS011;16233;47.964;-3.842;2022-09-27T02:05:15;11.88;;;2.33;;
29184;SDS011;16233;47.964;-3.842;2022-09-27T02:07:19;9.80;;;2.50;;
29184;SDS011;16233;47.964;-3.842;2022-09-27T02:09:26;11.27;;;2.17;;
29184;SDS011;16233;47.964;-3.842;2022-09-27T02:11:31;9.75;;;2.25;;
29184;SDS011;16233;47.964;-3.842;2022-09-27T02:13:37;6.53;;;2.25;;
29184;SDS011;16233;47.964;-3.842;2022-09-27T02:15:47;9.02;;;2.08;;
29184;SDS011;16233;47.964;-3.842;2022-09-27T02:17:55;12.45;;;2.22;;
29184;SDS011;16233;47.964;-3.842;2022-09-27T02:20:03;10.48;;;2.17;;
29184;SDS011;16233;47.964;-3.842;2022-09-27T02:22:13;8.25;;;2.55;;
29184;SDS011;16233;47.964;-3.842;2022-09-27T02:24:18;6.88;;;2.72;;
29184;SDS011;16233;47.964;-3.842;2022-09-27T02:26:23;11.13;;;3.85;;
29184;SDS011;16233;47.964;-3.842;2022-09-27T02:28:30;9.38;;;1.95;;
29184;SDS011;16233;47.964;-3.842;2022-09-27T02:30:35;9.25;;;1.90;;
29184;SDS011;16233;47.964;-3.842;2022-09-27T02:32:36;8.13;;;2.40;;
29184;SDS011;16233;47.964;-3.842;2022-09-27T02:34:38;11.95;;;2.45;;
29184;SDS011;16233;47.964;-3.842;2022-09-27T02:36:42;11.32;;;2.85;;
29184;SDS011;16233;47.964;-3.842;2022-09-27T02:38:43;13.48;;;2.75;;
29184;SDS011;16233;47.964;-3.842;2022-09-27T02:40:45;10.73;;;2.65;;
29184;SDS011;16233;47.964;-3.842;2022-09-27T02:42:47;8.48;;;2.38;;
29184;SDS011;16233;47.964;-3.842;2022-09-27T02:44:48;9.65;;;2.45;;
29184;SDS011;16233;47.964;-3.842;2022-09-27T02:46:58;5.45;;;1.55;;
29184;SDS011;16233;47.964;-3.842;2022-09-27T02:49:14;9.52;;;2.05;;
29184;SDS011;16233;47.964;-3.842;2022-09-27T02:51:32;7.25;;;2.10;;
29184;SDS011;16233;47.964;-3.842;2022-09-27T02:53:50;8.13;;;1.70;;
29184;SDS011;16233;47.964;-3.842;2022-09-27T02:56:04;6.65;;;1.80;;
29184;SDS011;16233;47.964;-3.842;2022-09-27T02:58:14;12.43;;;4.33;;
29184;SDS011;16233;47.964;-3.842;2022-09-27T03:00:23;7.25;;;1.90;;
29184;SDS011;16233;47.964;-3.842;2022-09-27T03:02:31;10.13;;;2.60;;
29184;SDS011;16233;47.964;-3.842;2022-09-27T03:04:36;8.13;;;1.73;;
29184;SDS011;16233;47.964;-3.842;2022-09-27T03:06:44;13.32;;;2.00;;
29184;SDS011;16233;47.964;-3.842;2022-09-27T03:08:46;15.40;;;2.35;;
29184;SDS011;16233;47.964;-3.842;2022-09-27T03:10:48;14.68;;;1.92;;
29184;SDS011;16233;47.964;-3.842;2022-09-27T03:12:49;15.02;;;1.67;;
29184;SDS011;16233;47.964;-3.842;2022-09-27T03:14:52;9.70;;;1.92;;
29184;SDS011;16233;47.964;-3.842;2022-09-27T03:16:54;7.47;;;1.65;;
29184;SDS011;16233;47.964;-3.842;2022-09-27T03:18:55;13.32;;;2.08;;
29184;SDS011;16233;47.964;-3.842;2022-09-27T03:20:56;6.43;;;1.92;;
29184;SDS011;16233;47.964;-3.842;2022-09-27T03:22:59;13.00;;;1.70;;
29184;SDS011;16233;47.964;-3.842;2022-09-27T03:25:00;16.80;;;3.05;;
29184;SDS011;16233;47.964;-3.842;2022-09-27T03:27:01;9.52;;;1.92;;
29184;SDS011;16233;47.964;-3.842;2022-09-27T03:29:02;10.50;;;2.17;;
29184;SDS011;16233;47.964;-3.842;2022-09-27T03:31:03;8.75;;;2.03;;
29184;SDS011;16233;47.964;-3.842;2022-09-27T03:33:04;8.55;;;1.73;;
29184;SDS011;16233;47.964;-3.842;2022-09-27T03:35:06;11.13;;;2.03;;
29184;SDS011;16233;47.964;-3.842;2022-09-27T03:37:07;12.85;;;1.77;;
29184;SDS011;16233;47.964;-3.842;2022-09-27T03:39:09;10.70;;;2.75;;
29184;SDS011;16233;47.964;-3.842;2022-09-27T03:41:10;11.75;;;1.90;;
29184;SDS011;16233;47.964;-3.842;2022-09-27T03:43:11;13.27;;;1.85;;
29184;SDS011;16233;47.964;-3.842;2022-09-27T03:45:12;13.25;;;2.05;;
29184;SDS011;16233;47.964;-3.842;2022-09-27T03:47:13;8.20;;;2.10;;
29184;SDS011;16233;47.964;-3.842;2022-09-27T03:49:14;9.13;;;1.80;;
29184;SDS011;16233;47.964;-3.842;2022-09-27T03:51:15;8.48;;;1.88;;
29184;SDS011;16233;47.964;-3.842;2022-09-27T03:53:16;16.05;;;2.08;;
29184;SDS011;16233;47.964;-3.842;2022-09-27T03:55:19;10.07;;;2.38;;
29184;SDS011;16233;47.964;-3.842;2022-09-27T03:57:20;7.75;;;1.85;;
29184;SDS011;16233;47.964;-3.842;2022-09-27T03:59:21;11.57;;;3.08;;
29184;SDS011;16233;47.964;-3.842;2022-09-27T04:01:22;10.80;;;2.22;;
29184;SDS011;16233;47.964;-3.842;2022-09-27T04:03:23;11.63;;;1.77;;
29184;SDS011;16233;47.964;-3.842;2022-09-27T04:05:24;9.32;;;2.20;;
29184;SDS011;16233;47.964;-3.842;2022-09-27T04:07:26;10.90;;;2.28;;
29184;SDS011;16233;47.964;-3.842;2022-09-27T04:09:27;11.45;;;1.83;;
29184;SDS011;16233;47.964;-3.842;2022-09-27T04:13:32;8.35;;;1.63;;
29184;SDS011;16233;47.964;-3.842;2022-09-27T04:15:33;5.97;;;2.03;;
29184;SDS011;16233;47.964;-3.842;2022-09-27T04:17:34;12.60;;;1.92;;
29184;SDS011;16233;47.964;-3.842;2022-09-27T04:19:36;9.77;;;2.88;;
29184;SDS011;16233;47.964;-3.842;2022-09-27T04:21:37;13.07;;;2.03;;
29184;SDS011;16233;47.964;-3.842;2022-09-27T04:23:38;9.32;;;2.45;;
29184;SDS011;16233;47.964;-3.842;2022-09-27T04:25:39;11.80;;;2.20;;
29184;SDS011;16233;47.964;-3.842;2022-09-27T04:27:44;7.75;;;1.80;;
29184;SDS011;16233;47.964;-3.842;2022-09-27T04:29:45;9.50;;;2.35;;
29184;SDS011;16233;47.964;-3.842;2022-09-27T04:31:47;7.60;;;1.92;;
29184;SDS011;16233;47.964;-3.842;2022-09-27T04:33:48;12.55;;;2.10;;
29184;SDS011;16233;47.964;-3.842;2022-09-27T04:35:49;11.93;;;1.85;;
29184;SDS011;16233;47.964;-3.842;2022-09-27T04:37:51;13.85;;;1.98;;
29184;SDS011;16233;47.964;-3.842;2022-09-27T04:39:55;11.63;;;2.13;;
29184;SDS011;16233;47.964;-3.842;2022-09-27T04:41:56;16.85;;;2.45;;
29184;SDS011;16233;47.964;-3.842;2022-09-27T04:43:58;8.52;;;2.22;;
29184;SDS011;16233;47.964;-3.842;2022-09-27T04:45:59;18.55;;;2.22;;
29184;SDS011;16233;47.964;-3.842;2022-09-27T04:48:00;14.65;;;2.03;;
29184;SDS011;16233;47.964;-3.842;2022-09-27T04:50:01;17.50;;;2.33;;
29184;SDS011;16233;47.964;-3.842;2022-09-27T04:52:03;14.98;;;2.53;;
29184;SDS011;16233;47.964;-3.842;2022-09-27T04:54:04;18.55;;;2.85;;
29184;SDS011;16233;47.964;-3.842;2022-09-27T04:56:05;10.98;;;2.10;;
29184;SDS011;16233;47.964;-3.842;2022-09-27T04:58:06;19.73;;;3.88;;
29184;SDS011;16233;47.964;-3.842;2022-09-27T05:00:09;12.57;;;1.98;;
29184;SDS011;16233;47.964;-3.842;2022-09-27T05:02:11;16.38;;;2.47;;
29184;SDS011;16233;47.964;-3.842;2022-09-27T05:04:12;18.98;;;3.22;;
29184;SDS011;16233;47.964;-3.842;2022-09-27T05:06:13;20.55;;;3.10;;
29184;SDS011;16233;47.964;-3.842;2022-09-27T05:08:14;17.48;;;2.97;;
29184;SDS011;16233;47.964;-3.842;2022-09-27T05:10:15;14.23;;;2.95;;
29184;SDS011;16233;47.964;-3.842;2022-09-27T05:12:16;17.88;;;2.90;;
29184;SDS011;16233;47.964;-3.842;2022-09-27T05:14:17;14.15;;;2.50;;
29184;SDS011;16233;47.964;-3.842;2022-09-27T05:16:20;14.93;;;2.83;;
29184;SDS011;16233;47.964;-3.842;2022-09-27T05:18:21;18.73;;;3.03;;
29184;SDS011;16233;47.964;-3.842;2022-09-27T05:20:22;12.55;;;2.60;;
29184;SDS011;16233;47.964;-3.842;2022-09-27T05:22:23;17.50;;;2.83;;
29184;SDS011;16233;47.964;-3.842;2022-09-27T05:24:24;19.63;;;3.17;;
29184;SDS011;16233;47.964;-3.842;2022-09-27T05:26:25;13.20;;;2.42;;
29184;SDS011;16233;47.964;-3.842;2022-09-27T05:28:26;13.38;;;2.60;;
29184;SDS011;16233;47.964;-3.842;2022-09-27T05:30:27;20.42;;;3.10;;
29184;SDS011;16233;47.964;-3.842;2022-09-27T05:32:29;19.55;;;3.38;;
29184;SDS011;16233;47.964;-3.842;2022-09-27T05:34:30;14.57;;;2.28;;
29184;SDS011;16233;47.964;-3.842;2022-09-27T05:36:31;20.33;;;3.20;;
29184;SDS011;16233;47.964;-3.842;2022-09-27T05:38:33;15.07;;;2.83;;
29184;SDS011;16233;47.964;-3.842;2022-09-27T05:40:34;12.02;;;3.00;;
29184;SDS011;16233;47.964;-3.842;2022-09-27T05:42:37;20.38;;;3.72;;
29184;SDS011;16233;47.964;-3.842;2022-09-27T05:44:38;18.83;;;2.70;;
29184;SDS011;16233;47.964;-3.842;2022-09-27T05:46:39;16.77;;;2.80;;
29184;SDS011;16233;47.964;-3.842;2022-09-27T05:48:41;26.17;;;4.13;;
29184;SDS011;16233;47.964;-3.842;2022-09-27T05:50:42;22.55;;;2.90;;
29184;SDS011;16233;47.964;-3.842;2022-09-27T05:52:44;32.17;;;3.35;;
29184;SDS011;16233;47.964;-3.842;2022-09-27T05:54:45;21.02;;;3.13;;
29184;SDS011;16233;47.964;-3.842;2022-09-27T05:56:46;14.85;;;3.15;;
29184;SDS011;16233;47.964;-3.842;2022-09-27T05:58:47;21.13;;;3.42;;
29184;SDS011;16233;47.964;-3.842;2022-09-27T06:00:48;23.90;;;4.30;;
29184;SDS011;16233;47.964;-3.842;2022-09-27T06:02:52;10.52;;;3.45;;
29184;SDS011;16233;47.964;-3.842;2022-09-27T06:04:55;20.90;;;2.88;;
29184;SDS011;16233;47.964;-3.842;2022-09-27T06:06:57;17.50;;;3.20;;
29184;SDS011;16233;47.964;-3.842;2022-09-27T06:08:58;16.55;;;3.17;;
29184;SDS011;16233;47.964;-3.842;2022-09-27T06:10:59;24.58;;;5.45;;
29184;SDS011;16233;47.964;-3.842;2022-09-27T06:13:01;19.33;;;3.97;;
29184;SDS011;16233;47.964;-3.842;2022-09-27T06:15:04;18.17;;;3.60;;
29184;SDS011;16233;47.964;-3.842;2022-09-27T06:17:05;15.48;;;3.00;;
29184;SDS011;16233;47.964;-3.842;2022-09-27T06:19:06;22.02;;;4.10;;
29184;SDS011;16233;47.964;-3.842;2022-09-27T06:21:09;15.18;;;2.70;;
29184;SDS011;16233;47.964;-3.842;2022-09-27T06:23:11;16.10;;;3.20;;
29184;SDS011;16233;47.964;-3.842;2022-09-27T06:25:13;16.08;;;4.05;;
29184;SDS011;16233;47.964;-3.842;2022-09-27T06:27:14;18.95;;;3.75;;
29184;SDS011;16233;47.964;-3.842;2022-09-27T06:29:15;17.58;;;3.30;;
29184;SDS011;16233;47.964;-3.842;2022-09-27T06:31:16;18.23;;;3.67;;
29184;SDS011;16233;47.964;-3.842;2022-09-27T06:33:17;24.02;;;3.83;;
29184;SDS011;16233;47.964;-3.842;2022-09-27T06:35:19;17.63;;;3.80;;
29184;SDS011;16233;47.964;-3.842;2022-09-27T06:37:24;24.70;;;3.90;;
29184;SDS011;16233;47.964;-3.842;2022-09-27T06:39:25;22.65;;;5.03;;
29184;SDS011;16233;47.964;-3.842;2022-09-27T06:41:27;26.10;;;4.90;;
29184;SDS011;16233;47.964;-3.842;2022-09-27T06:43:28;19.55;;;3.78;;
29184;SDS011;16233;47.964;-3.842;2022-09-27T06:45:29;21.17;;;3.75;;
29184;SDS011;16233;47.964;-3.842;2022-09-27T06:47:34;23.95;;;3.40;;
29184;SDS011;16233;47.964;-3.842;2022-09-27T06:49:35;29.35;;;4.57;;
29184;SDS011;16233;47.964;-3.842;2022-09-27T06:51:36;17.08;;;4.60;;
29184;SDS011;16233;47.964;-3.842;2022-09-27T06:53:38;19.60;;;3.30;;
29184;SDS011;16233;47.964;-3.842;2022-09-27T06:55:39;19.33;;;3.53;;
29184;SDS011;16233;47.964;-3.842;2022-09-27T06:57:41;28.60;;;4.78;;
29184;SDS011;16233;47.964;-3.842;2022-09-27T06:59:42;23.88;;;4.07;;
29184;SDS011;16233;47.964;-3.842;2022-09-27T07:01:43;24.23;;;3.80;;
29184;SDS011;16233;47.964;-3.842;2022-09-27T07:03:48;25.75;;;4.00;;
29184;SDS011;16233;47.964;-3.842;2022-09-27T07:05:56;20.73;;;3.72;;
29184;SDS011;16233;47.964;-3.842;2022-09-27T07:07:58;23.65;;;4.45;;
29184;SDS011;16233;47.964;-3.842;2022-09-27T07:10:00;24.58;;;3.50;;
29184;SDS011;16233;47.964;-3.842;2022-09-27T07:12:01;20.42;;;3.60;;
29184;SDS011;16233;47.964;-3.842;2022-09-27T07:14:03;23.08;;;3.60;;
29184;SDS011;16233;47.964;-3.842;2022-09-27T07:16:04;15.43;;;4.03;;
29184;SDS011;16233;47.964;-3.842;2022-09-27T07:18:05;22.73;;;3.80;;
29184;SDS011;16233;47.964;-3.842;2022-09-27T07:20:07;26.63;;;4.97;;
29184;SDS011;16233;47.964;-3.842;2022-09-27T07:22:08;23.80;;;3.97;;
29184;SDS011;16233;47.964;-3.842;2022-09-27T07:24:09;25.60;;;4.13;;
29184;SDS011;16233;47.964;-3.842;2022-09-27T07:26:12;26.63;;;5.45;;
29184;SDS011;16233;47.964;-3.842;2022-09-27T07:28:14;27.67;;;5.00;;
29184;SDS011;16233;47.964;-3.842;2022-09-27T07:30:16;18.65;;;4.65;;
29184;SDS011;16233;47.964;-3.842;2022-09-27T07:32:17;25.00;;;4.85;;
29184;SDS011;16233;47.964;-3.842;2022-09-27T07:34:19;21.52;;;4.18;;
29184;SDS011;16233;47.964;-3.842;2022-09-27T07:36:20;25.40;;;5.00;;
29184;SDS011;16233;47.964;-3.842;2022-09-27T07:38:21;35.55;;;5.43;;
29184;SDS011;16233;47.964;-3.842;2022-09-27T07:40:22;20.20;;;4.80;;
29184;SDS011;16233;47.964;-3.842;2022-09-27T07:42:25;18.52;;;4.32;;
29184;SDS011;16233;47.964;-3.842;2022-09-27T07:44:26;26.38;;;5.53;;
29184;SDS011;16233;47.964;-3.842;2022-09-27T07:46:28;23.23;;;4.28;;
29184;SDS011;16233;47.964;-3.842;2022-09-27T07:48:29;23.75;;;3.90;;
29184;SDS011;16233;47.964;-3.842;2022-09-27T07:50:31;20.08;;;4.20;;
29184;SDS011;16233;47.964;-3.842;2022-09-27T07:52:37;20.58;;;5.35;;
29184;SDS011;16233;47.964;-3.842;2022-09-27T07:54:38;27.88;;;4.97;;
29184;SDS011;16233;47.964;-3.842;2022-09-27T07:56:39;22.63;;;4.20;;
29184;SDS011;16233;47.964;-3.842;2022-09-27T07:58:42;19.73;;;4.90;;
29184;SDS011;16233;47.964;-3.842;2022-09-27T08:00:43;30.45;;;5.03;;
29184;SDS011;16233;47.964;-3.842;2022-09-27T08:02:44;23.08;;;5.00;;
29184;SDS011;16233;47.964;-3.842;2022-09-27T08:04:45;15.27;;;3.60;;
29184;SDS011;16233;47.964;-3.842;2022-09-27T08:06:46;25.42;;;4.85;;
29184;SDS011;16233;47.964;-3.842;2022-09-27T08:08:47;17.83;;;4.60;;
29184;SDS011;16233;47.964;-3.842;2022-09-27T08:10:48;15.07;;;4.15;;
29184;SDS011;16233;47.964;-3.842;2022-09-27T08:12:49;21.42;;;3.85;;
29184;SDS011;16233;47.964;-3.842;2022-09-27T08:14:52;18.27;;;3.80;;
29184;SDS011;16233;47.964;-3.842;2022-09-27T08:16:53;20.40;;;4.72;;
29184;SDS011;16233;47.964;-3.842;2022-09-27T08:18:54;23.45;;;4.60;;
29184;SDS011;16233;47.964;-3.842;2022-09-27T08:20:55;23.92;;;5.43;;
29184;SDS011;16233;47.964;-3.842;2022-09-27T08:22:56;15.57;;;3.83;;
29184;SDS011;16233;47.964;-3.842;2022-09-27T08:24:57;18.73;;;3.88;;
29184;SDS011;16233;47.964;-3.842;2022-09-27T08:26:58;23.88;;;5.25;;
29184;SDS011;16233;47.964;-3.842;2022-09-27T08:29:01;18.13;;;4.13;;
29184;SDS011;16233;47.964;-3.842;2022-09-27T08:31:03;27.52;;;5.75;;
29184;SDS011;16233;47.964;-3.842;2022-09-27T08:33:04;20.75;;;4.45;;
29184;SDS011;16233;47.964;-3.842;2022-09-27T08:35:06;19.65;;;3.78;;
29184;SDS011;16233;47.964;-3.842;2022-09-27T08:37:08;22.10;;;4.93;;
29184;SDS011;16233;47.964;-3.842;2022-09-27T08:39:09;27.50;;;5.93;;
29184;SDS011;16233;47.964;-3.842;2022-09-27T08:41:11;22.90;;;5.88;;
29184;SDS011;16233;47.964;-3.842;2022-09-27T08:43:26;20.02;;;5.50;;
29184;SDS011;16233;47.964;-3.842;2022-09-27T08:45:34;17.85;;;3.92;;
29184;SDS011;16233;47.964;-3.842;2022-09-27T08:47:43;27.70;;;6.43;;
29184;SDS011;16233;47.964;-3.842;2022-09-27T08:49:47;25.42;;;4.15;;
29184;SDS011;16233;47.964;-3.842;2022-09-27T08:51:51;21.80;;;4.35;;
29184;SDS011;16233;47.964;-3.842;2022-09-27T08:53:54;22.90;;;4.70;;
29184;SDS011;16233;47.964;-3.842;2022-09-27T08:56:00;26.35;;;6.32;;
29184;SDS011;16233;47.964;-3.842;2022-09-27T08:58:01;22.52;;;5.30;;
29184;SDS011;16233;47.964;-3.842;2022-09-27T09:00:10;22.13;;;4.20;;
29184;SDS011;16233;47.964;-3.842;2022-09-27T09:02:13;24.23;;;5.28;;
29184;SDS011;16233;47.964;-3.842;2022-09-27T09:04:20;22.27;;;4.93;;
29184;SDS011;16233;47.964;-3.842;2022-09-27T09:06:26;22.77;;;5.97;;
29184;SDS011;16233;47.964;-3.842;2022-09-27T09:08:31;18.05;;;5.15;;
29184;SDS011;16233;47.964;-3.842;2022-09-27T09:10:41;25.70;;;4.72;;
29184;SDS011;16233;47.964;-3.842;2022-09-27T09:12:51;21.60;;;5.88;;
29184;SDS011;16233;47.964;-3.842;2022-09-27T09:15:09;16.50;;;4.53;;
29184;SDS011;16233;47.964;-3.842;2022-09-27T09:17:32;24.45;;;4.25;;
29184;SDS011;16233;47.964;-3.842;2022-09-27T09:19:57;18.73;;;4.53;;
29184;SDS011;16233;47.964;-3.842;2022-09-27T09:22:15;22.27;;;4.20;;
29184;SDS011;16233;47.964;-3.842;2022-09-27T09:24:31;18.55;;;4.75;;
29184;SDS011;16233;47.964;-3.842;2022-09-27T09:26:41;19.52;;;3.92;;
29184;SDS011;16233;47.964;-3.842;2022-09-27T09:28:51;15.65;;;4.13;;
29184;SDS011;16233;47.964;-3.842;2022-09-27T09:31:04;20.38;;;4.93;;
29184;SDS011;16233;47.964;-3.842;2022-09-27T09:33:17;27.27;;;5.80;;
29184;SDS011;16233;47.964;-3.842;2022-09-27T09:35:24;19.98;;;4.38;;
29184;SDS011;16233;47.964;-3.842;2022-09-27T09:37:34;23.65;;;4.53;;
29184;SDS011;16233;47.964;-3.842;2022-09-27T09:39:38;24.98;;;4.35;;
29184;SDS011;16233;47.964;-3.842;2022-09-27T09:41:47;18.50;;;4.32;;
29184;SDS011;16233;47.964;-3.842;2022-09-27T09:44:00;18.33;;;5.13;;
29184;SDS011;16233;47.964;-3.842;2022-09-27T09:46:06;25.88;;;6.82;;
29184;SDS011;16233;47.964;-3.842;2022-09-27T09:48:12;22.08;;;4.82;;
29184;SDS011;16233;47.964;-3.842;2022-09-27T09:50:19;21.02;;;5.13;;
29184;SDS011;16233;47.964;-3.842;2022-09-27T09:52:27;19.58;;;4.15;;
29184;SDS011;16233;47.964;-3.842;2022-09-27T09:54:36;19.65;;;4.57;;
29184;SDS011;16233;47.964;-3.842;2022-09-27T09:56:43;16.15;;;4.65;;
29184;SDS011;16233;47.964;-3.842;2022-09-27T09:58:48;20.25;;;5.18;;
29184;SDS011;16233;47.964;-3.842;2022-09-27T10:00:53;19.48;;;4.05;;
29184;SDS011;16233;47.964;-3.842;2022-09-27T10:02:58;16.75;;;4.78;;
29184;SDS011;16233;47.964;-3.842;2022-09-27T10:05:00;12.45;;;3.25;;
29184;SDS011;16233;47.964;-3.842;2022-09-27T10:07:02;21.83;;;4.82;;
29184;SDS011;16233;47.964;-3.842;2022-09-27T10:09:04;18.10;;;4.72;;
29184;SDS011;16233;47.964;-3.842;2022-09-27T10:11:06;21.27;;;4.10;;
29184;SDS011;16233;47.964;-3.842;2022-09-27T10:13:13;18.52;;;3.50;;
29184;SDS011;16233;47.964;-3.842;2022-09-27T10:15:16;25.88;;;5.32;;
29184;SDS011;16233;47.964;-3.842;2022-09-27T10:17:19;13.57;;;4.53;;
29184;SDS011;16233;47.964;-3.842;2022-09-27T10:19:24;14.00;;;2.97;;
29184;SDS011;16233;47.964;-3.842;2022-09-27T10:21:28;20.58;;;4.45;;
29184;SDS011;16233;47.964;-3.842;2022-09-27T10:23:29;15.85;;;3.50;;
29184;SDS011;16233;47.964;-3.842;2022-09-27T10:27:55;18.83;;;3.95;;
29184;SDS011;16233;47.964;-3.842;2022-09-27T10:29:56;18.98;;;3.78;;
29184;SDS011;16233;47.964;-3.842;2022-09-27T10:31:58;14.40;;;4.43;;
29184;SDS011;16233;47.964;-3.842;2022-09-27T10:34:01;12.90;;;3.30;;
29184;SDS011;16233;47.964;-3.842;2022-09-27T10:36:03;19.92;;;4.25;;
29184;SDS011;16233;47.964;-3.842;2022-09-27T10:38:23;18.33;;;4.78;;
29184;SDS011;16233;47.964;-3.842;2022-09-27T10:40:27;16.83;;;5.18;;
29184;SDS011;16233;47.964;-3.842;2022-09-27T10:42:34;14.15;;;3.83;;
29184;SDS011;16233;47.964;-3.842;2022-09-27T10:44:36;13.18;;;3.17;;
29184;SDS011;16233;47.964;-3.842;2022-09-27T10:46:37;13.20;;;3.58;;
29184;SDS011;16233;47.964;-3.842;2022-09-27T10:48:38;16.35;;;3.50;;
29184;SDS011;16233;47.964;-3.842;2022-09-27T10:50:40;11.27;;;3.20;;
29184;SDS011;16233;47.964;-3.842;2022-09-27T10:53:00;15.27;;;3.30;;
29184;SDS011;16233;47.964;-3.842;2022-09-27T10:55:04;14.27;;;4.28;;
29184;SDS011;16233;47.964;-3.842;2022-09-27T10:57:20;14.07;;;3.15;;
29184;SDS011;16233;47.964;-3.842;2022-09-27T10:59:24;15.55;;;4.43;;
29184;SDS011;16233;47.964;-3.842;2022-09-27T11:01:37;12.23;;;3.60;;
29184;SDS011;16233;47.964;-3.842;2022-09-27T11:03:44;12.07;;;3.17;;
29184;SDS011;16233;47.964;-3.842;2022-09-27T11:05:47;14.52;;;4.05;;
29184;SDS011;16233;47.964;-3.842;2022-09-27T11:07:49;18.15;;;4.05;;
29184;SDS011;16233;47.964;-3.842;2022-09-27T11:09:52;21.83;;;4.22;;
29184;SDS011;16233;47.964;-3.842;2022-09-27T11:14:17;14.55;;;3.60;;
29184;SDS011;16233;47.964;-3.842;2022-09-27T11:16:24;22.10;;;3.67;;
29184;SDS011;16233;47.964;-3.842;2022-09-27T11:18:39;12.30;;;4.13;;
29184;SDS011;16233;47.964;-3.842;2022-09-27T11:20:50;18.30;;;4.95;;
29184;SDS011;16233;47.964;-3.842;2022-09-27T11:23:03;16.65;;;3.58;;
29184;SDS011;16233;47.964;-3.842;2022-09-27T11:25:19;14.05;;;3.33;;
29184;SDS011;16233;47.964;-3.842;2022-09-27T11:27:32;15.85;;;3.20;;
29184;SDS011;16233;47.964;-3.842;2022-09-27T11:29:42;32.25;;;4.28;;
29184;SDS011;16233;47.964;-3.842;2022-09-27T11:32:00;22.15;;;5.70;;
29184;SDS011;16233;47.964;-3.842;2022-09-27T11:36:26;22.20;;;3.83;;
29184;SDS011;16233;47.964;-3.842;2022-09-27T11:38:35;29.55;;;3.63;;
29184;SDS011;16233;47.964;-3.842;2022-09-27T11:41:01;20.33;;;3.72;;
29184;SDS011;16233;47.964;-3.842;2022-09-27T11:43:17;16.58;;;4.63;;
29184;SDS011;16233;47.964;-3.842;2022-09-27T11:45:33;17.52;;;4.97;;
29184;SDS011;16233;47.964;-3.842;2022-09-27T11:47:45;14.75;;;3.20;;
29184;SDS011;16233;47.964;-3.842;2022-09-27T11:52:27;17.70;;;2.85;;
29184;SDS011;16233;47.964;-3.842;2022-09-27T11:54:43;18.85;;;3.70;;
29184;SDS011;16233;47.964;-3.842;2022-09-27T11:56:57;19.83;;;3.33;;
29184;SDS011;16233;47.964;-3.842;2022-09-27T11:59:08;25.83;;;4.50;;
29184;SDS011;16233;47.964;-3.842;2022-09-27T12:01:29;20.10;;;4.15;;
29184;SDS011;16233;47.964;-3.842;2022-09-27T12:03:50;12.80;;;2.80;;
29184;SDS011;16233;47.964;-3.842;2022-09-27T12:06:05;15.45;;;2.60;;
29184;SDS011;16233;47.964;-3.842;2022-09-27T12:08:15;17.48;;;2.72;;
29184;SDS011;16233;47.964;-3.842;2022-09-27T12:10:26;12.85;;;2.45;;
29184;SDS011;16233;47.964;-3.842;2022-09-27T12:12:27;13.10;;;2.53;;
29184;SDS011;16233;47.964;-3.842;2022-09-27T12:14:33;7.03;;;2.20;;
29184;SDS011;16233;47.964;-3.842;2022-09-27T12:16:41;12.95;;;2.38;;
29184;SDS011;16233;47.964;-3.842;2022-09-27T12:18:44;5.50;;;1.65;;
29184;SDS011;16233;47.964;-3.842;2022-09-27T12:20:50;2.90;;;1.50;;
29184;SDS011;16233;47.964;-3.842;2022-09-27T12:22:53;4.38;;;1.55;;